sensor_id;sensor_type;location;lat;lon;timestamp;pressure;altitude;pressure_sealevel;temperature;humidity
17615;BME280;8926;49.720;6.576;2023-02-19T00:02:08;100292.75;;;10.30;86.86
17615;BME280;8926;49.720;6.576;2023-02-19T00:04:33;100288.44;;;10.29;86.62
17615;BME280;8926;49.720;6.576;2023-02-19T00:06:58;100302.50;;;10.26;87.25
17615;BME280;8926;49.720;6.576;2023-02-19T00:09:24;100304.06;;;10.30;86.96
17615;BME280;8926;49.720;6.576;2023-02-19T00:11:50;100302.34;;;10.29;86.83
17615;BME280;8926;49.720;6.576;2023-02-19T00:14:18;100297.97;;;10.30;86.69
17615;BME280;8926;49.720;6.576;2023-02-19T00:16:44;100310.13;;;10.31;87.11
17615;BME280;8926;49.720;6.576;2023-02-19T00:19:13;100317.03;;;10.32;86.71
17615;BME280;8926;49.720;6.576;2023-02-19T00:21:39;100308.28;;;10.33;86.94
17615;BME280;8926;49.720;6.576;2023-02-19T00:24:05;100278.50;;;10.37;86.56
17615;BME280;8926;49.720;6.576;2023-02-19T00:26:32;100289.09;;;10.34;86.69
17615;BME280;8926;49.720;6.576;2023-02-19T00:28:58;100295.16;;;10.34;86.89
17615;BME280;8926;49.720;6.576;2023-02-19T00:31:26;100294.31;;;10.34;87.02
17615;BME280;8926;49.720;6.576;2023-02-19T00:33:55;100290.78;;;10.35;86.92
17615;BME280;8926;49.720;6.576;2023-02-19T00:36:21;100278.50;;;10.37;86.83
17615;BME280;8926;49.720;6.576;2023-02-19T00:38:47;100287.41;;;10.33;87.12
17615;BME280;8926;49.720;6.576;2023-02-19T00:41:14;100285.69;;;10.32;87.27
17615;BME280;8926;49.720;6.576;2023-02-19T00:43:51;100280.63;;;10.29;86.89
17615;BME280;8926;49.720;6.576;2023-02-19T00:46:22;100282.59;;;10.24;87.46
17615;BME280;8926;49.720;6.576;2023-02-19T00:48:48;100275.81;;;10.19;87.83
17615;BME280;8926;49.720;6.576;2023-02-19T00:51:14;100275.53;;;10.26;87.49
17615;BME280;8926;49.720;6.576;2023-02-19T00:53:40;100273.97;;;10.22;87.66
17615;BME280;8926;49.720;6.576;2023-02-19T00:56:06;100280.91;;;10.23;88.05
17615;BME280;8926;49.720;6.576;2023-02-19T00:58:31;100279.31;;;10.18;88.18
17615;BME280;8926;49.720;6.576;2023-02-19T01:00:57;100286.13;;;10.23;87.92
17615;BME280;8926;49.720;6.576;2023-02-19T01:03:22;100293.19;;;10.20;87.86
17615;BME280;8926;49.720;6.576;2023-02-19T01:05:49;100283.66;;;10.19;88.06
17615;BME280;8926;49.720;6.576;2023-02-19T01:08:15;100279.38;;;10.17;88.16
17615;BME280;8926;49.720;6.576;2023-02-19T01:10:40;100274.09;;;10.18;88.41
17615;BME280;8926;49.720;6.576;2023-02-19T01:13:05;100278.44;;;10.19;88.08
17615;BME280;8926;49.720;6.576;2023-02-19T01:15:33;100280.22;;;10.17;88.39
17615;BME280;8926;49.720;6.576;2023-02-19T01:17:59;100279.91;;;10.25;87.89
17615;BME280;8926;49.720;6.576;2023-02-19T01:20:24;100268.63;;;10.25;87.99
17615;BME280;8926;49.720;6.576;2023-02-19T01:22:50;100273.00;;;10.24;87.89
17615;BME280;8926;49.720;6.576;2023-02-19T01:25:16;100266.31;;;10.17;88.37
17615;BME280;8926;49.720;6.576;2023-02-19T01:27:41;100277.00;;;10.12;88.90
17615;BME280;8926;49.720;6.576;2023-02-19T01:30:07;100259.94;;;10.05;90.51
17615;BME280;8926;49.720;6.576;2023-02-19T01:32:32;100271.16;;;10.07;90.33
17615;BME280;8926;49.720;6.576;2023-02-19T01:34:57;100268.47;;;10.09;90.53
17615;BME280;8926;49.720;6.576;2023-02-19T01:37:23;100271.00;;;10.10;90.25
17615;BME280;8926;49.720;6.576;2023-02-19T01:39:48;100262.41;;;10.08;90.77
17615;BME280;8926;49.720;6.576;2023-02-19T01:42:15;100264.09;;;10.09;91.38
17615;BME280;8926;49.720;6.576;2023-02-19T01:47:08;100252.38;;;9.99;91.71
17615;BME280;8926;49.720;6.576;2023-02-19T01:49:38;100263.59;;;10.01;91.93
17615;BME280;8926;49.720;6.576;2023-02-19T01:52:27;100248.72;;;10.03;92.01
17615;BME280;8926;49.720;6.576;2023-02-19T01:54:55;100249.41;;;10.07;92.23
17615;BME280;8926;49.720;6.576;2023-02-19T01:57:25;100239.81;;;10.07;92.17
17615;BME280;8926;49.720;6.576;2023-02-19T01:59:54;100243.34;;;10.06;91.90
17615;BME280;8926;49.720;6.576;2023-02-19T02:02:21;100239.69;;;10.10;91.39
17615;BME280;8926;49.720;6.576;2023-02-19T02:04:49;100244.41;;;10.02;92.15
17615;BME280;8926;49.720;6.576;2023-02-19T02:07:15;100245.03;;;10.07;92.10
17615;BME280;8926;49.720;6.576;2023-02-19T02:09:59;100243.06;;;10.12;92.14
17615;BME280;8926;49.720;6.576;2023-02-19T02:12:43;100247.50;;;10.10;91.57
17615;BME280;8926;49.720;6.576;2023-02-19T02:15:08;100240.75;;;10.06;91.74
17615;BME280;8926;49.720;6.576;2023-02-19T02:17:43;100240.81;;;10.05;92.28
17615;BME280;8926;49.720;6.576;2023-02-19T02:31:08;100217.16;;;9.89;92.41
17615;BME280;8926;49.720;6.576;2023-02-19T02:33:48;100213.94;;;9.84;93.16
17615;BME280;8926;49.720;6.576;2023-02-19T02:36:30;100211.34;;;9.84;93.63
17615;BME280;8926;49.720;6.576;2023-02-19T02:38:58;100232.22;;;9.84;93.46
17615;BME280;8926;49.720;6.576;2023-02-19T02:41:24;100228.97;;;9.79;94.71
17615;BME280;8926;49.720;6.576;2023-02-19T02:43:50;100213.94;;;9.84;94.10
17615;BME280;8926;49.720;6.576;2023-02-19T02:46:27;100217.34;;;9.86;93.40
17615;BME280;8926;49.720;6.576;2023-02-19T02:49:00;100216.41;;;9.87;93.54
17615;BME280;8926;49.720;6.576;2023-02-19T02:51:36;100208.59;;;9.87;93.55
17615;BME280;8926;49.720;6.576;2023-02-19T02:56:53;100216.41;;;9.87;93.16
17615;BME280;8926;49.720;6.576;2023-02-19T02:59:22;100222.56;;;9.86;93.36
17615;BME280;8926;49.720;6.576;2023-02-19T03:05:01;100226.56;;;9.93;93.26
17615;BME280;8926;49.720;6.576;2023-02-19T03:10:21;100219.94;;;9.86;94.10
17615;BME280;8926;49.720;6.576;2023-02-19T03:12:51;100218.38;;;9.82;93.88
17615;BME280;8926;49.720;6.576;2023-02-19T03:15:42;100217.47;;;9.83;94.32
17615;BME280;8926;49.720;6.576;2023-02-19T03:18:28;100223.88;;;9.76;94.80
17615;BME280;8926;49.720;6.576;2023-02-19T03:21:14;100217.75;;;9.77;95.20
17615;BME280;8926;49.720;6.576;2023-02-19T03:23:42;100228.03;;;9.80;95.60
17615;BME280;8926;49.720;6.576;2023-02-19T03:26:28;100213.16;;;9.82;94.60
17615;BME280;8926;49.720;6.576;2023-02-19T03:28:56;100228.81;;;9.82;94.59
17615;BME280;8926;49.720;6.576;2023-02-19T03:31:41;100227.66;;;9.87;93.92
17615;BME280;8926;49.720;6.576;2023-02-19T03:34:10;100213.88;;;9.85;94.76
17615;BME280;8926;49.720;6.576;2023-02-19T03:36:43;100220.09;;;9.83;94.58
17615;BME280;8926;49.720;6.576;2023-02-19T03:39:12;100220.88;;;9.85;94.65
17615;BME280;8926;49.720;6.576;2023-02-19T03:44:38;100216.56;;;9.84;94.65
17615;BME280;8926;49.720;6.576;2023-02-19T03:47:15;100218.25;;;9.85;94.61
17615;BME280;8926;49.720;6.576;2023-02-19T03:49:55;100238.09;;;9.87;94.38
17615;BME280;8926;49.720;6.576;2023-02-19T03:52:40;100234.81;;;9.84;95.09
17615;BME280;8926;49.720;6.576;2023-02-19T03:58:01;100253.09;;;9.84;95.54
17615;BME280;8926;49.720;6.576;2023-02-19T04:00:33;100255.47;;;9.88;94.92
17615;BME280;8926;49.720;6.576;2023-02-19T04:03:19;100259.84;;;9.88;94.20
17615;BME280;8926;49.720;6.576;2023-02-19T04:05:52;100258.16;;;9.87;94.91
17615;BME280;8926;49.720;6.576;2023-02-19T04:08:21;100259.22;;;9.83;95.13
17615;BME280;8926;49.720;6.576;2023-02-19T04:10:49;100260.00;;;9.85;94.74
17615;BME280;8926;49.720;6.576;2023-02-19T04:13:21;100258.31;;;9.84;94.77
17615;BME280;8926;49.720;6.576;2023-02-19T04:15:50;100256.47;;;9.86;94.97
17615;BME280;8926;49.720;6.576;2023-02-19T04:18:21;100248.00;;;9.81;94.53
17615;BME280;8926;49.720;6.576;2023-02-19T04:20:49;100250.53;;;9.82;94.67
17615;BME280;8926;49.720;6.576;2023-02-19T04:23:17;100251.53;;;9.80;94.60
17615;BME280;8926;49.720;6.576;2023-02-19T04:25:46;100249.69;;;9.82;94.36
17615;BME280;8926;49.720;6.576;2023-02-19T04:28:13;100253.03;;;9.85;94.87
17615;BME280;8926;49.720;6.576;2023-02-19T04:30:41;100255.56;;;9.87;94.31
17615;BME280;8926;49.720;6.576;2023-02-19T04:33:06;100258.84;;;9.91;93.65
17615;BME280;8926;49.720;6.576;2023-02-19T04:35:31;100255.19;;;9.95;93.83
17615;BME280;8926;49.720;6.576;2023-02-19T04:37:57;100266.34;;;9.98;93.57
17615;BME280;8926;49.720;6.576;2023-02-19T04:40:22;100251.47;;;10.00;93.18
17615;BME280;8926;49.720;6.576;2023-02-19T04:42:47;100251.38;;;10.02;92.22
17615;BME280;8926;49.720;6.576;2023-02-19T04:45:13;100262.03;;;9.97;92.28
17615;BME280;8926;49.720;6.576;2023-02-19T04:47:38;100272.47;;;9.97;92.17
17615;BME280;8926;49.720;6.576;2023-02-19T04:50:03;100285.38;;;10.00;92.27
17615;BME280;8926;49.720;6.576;2023-02-19T04:52:29;100278.34;;;10.02;91.68
17615;BME280;8926;49.720;6.576;2023-02-19T04:54:54;100286.94;;;10.04;91.62
17615;BME280;8926;49.720;6.576;2023-02-19T04:57:19;100287.94;;;10.02;91.32
17615;BME280;8926;49.720;6.576;2023-02-19T04:59:45;100296.59;;;10.02;91.41
17615;BME280;8926;49.720;6.576;2023-02-19T05:02:10;100300.00;;;10.04;91.34
17615;BME280;8926;49.720;6.576;2023-02-19T05:04:36;100307.13;;;10.01;90.53
17615;BME280;8926;49.720;6.576;2023-02-19T05:07:01;100306.28;;;10.00;90.57
17615;BME280;8926;49.720;6.576;2023-02-19T05:09:26;100309.53;;;10.05;90.04
17615;BME280;8926;49.720;6.576;2023-02-19T05:11:52;100300.00;;;10.04;90.34
17615;BME280;8926;49.720;6.576;2023-02-19T05:14:17;100307.97;;;10.01;90.80
17615;BME280;8926;49.720;6.576;2023-02-19T05:16:42;100305.41;;;10.00;90.82
17615;BME280;8926;49.720;6.576;2023-02-19T05:19:11;100307.31;;;9.96;90.70
17615;BME280;8926;49.720;6.576;2023-02-19T05:21:37;100310.84;;;9.95;90.51
17615;BME280;8926;49.720;6.576;2023-02-19T05:24:04;100317.56;;;10.01;90.07
17615;BME280;8926;49.720;6.576;2023-02-19T05:26:29;100317.81;;;9.95;90.39
17615;BME280;8926;49.720;6.576;2023-02-19T05:28:55;100325.72;;;9.93;90.93
17615;BME280;8926;49.720;6.576;2023-02-19T05:31:21;100324.69;;;9.97;90.70
17615;BME280;8926;49.720;6.576;2023-02-19T05:33:46;100324.59;;;9.99;90.23
17615;BME280;8926;49.720;6.576;2023-02-19T05:36:16;100326.44;;;9.97;91.17
17615;BME280;8926;49.720;6.576;2023-02-19T05:38:42;100335.91;;;9.99;91.07
17615;BME280;8926;49.720;6.576;2023-02-19T05:41:11;100335.75;;;10.02;91.22
17615;BME280;8926;49.720;6.576;2023-02-19T05:43:38;100340.84;;;10.05;90.62
17615;BME280;8926;49.720;6.576;2023-02-19T05:46:04;100333.81;;;10.07;90.23
17615;BME280;8926;49.720;6.576;2023-02-19T05:48:29;100345.94;;;10.08;90.45
17615;BME280;8926;49.720;6.576;2023-02-19T05:51:03;100342.41;;;10.09;90.53
17615;BME280;8926;49.720;6.576;2023-02-19T05:53:29;100349.47;;;10.07;90.88
17615;BME280;8926;49.720;6.576;2023-02-19T05:55:54;100343.53;;;10.04;91.47
17615;BME280;8926;49.720;6.576;2023-02-19T05:58:19;100344.38;;;10.04;91.57
17615;BME280;8926;49.720;6.576;2023-02-19T06:00:44;100333.94;;;10.04;91.48
17615;BME280;8926;49.720;6.576;2023-02-19T06:03:10;100347.91;;;10.03;91.56
17615;BME280;8926;49.720;6.576;2023-02-19T06:05:36;100355.09;;;9.98;91.61
17615;BME280;8926;49.720;6.576;2023-02-19T06:08:03;100349.00;;;9.98;91.57
17615;BME280;8926;49.720;6.576;2023-02-19T06:10:28;100355.88;;;10.00;91.59
17615;BME280;8926;49.720;6.576;2023-02-19T06:12:54;100347.13;;;10.01;91.37
17615;BME280;8926;49.720;6.576;2023-02-19T06:15:19;100351.44;;;10.02;91.08
17615;BME280;8926;49.720;6.576;2023-02-19T06:17:45;100351.28;;;10.05;91.30
17615;BME280;8926;49.720;6.576;2023-02-19T06:20:10;100352.19;;;10.04;90.77
17615;BME280;8926;49.720;6.576;2023-02-19T06:22:36;100361.72;;;10.05;91.05
17615;BME280;8926;49.720;6.576;2023-02-19T06:25:01;100354.69;;;10.07;90.71
17615;BME280;8926;49.720;6.576;2023-02-19T06:27:26;100359.91;;;10.07;90.15
17615;BME280;8926;49.720;6.576;2023-02-19T06:29:52;100364.00;;;10.13;89.91
17615;BME280;8926;49.720;6.576;2023-02-19T06:32:17;100375.44;;;10.10;89.39
17615;BME280;8926;49.720;6.576;2023-02-19T06:34:43;100374.66;;;10.08;89.22
17615;BME280;8926;49.720;6.576;2023-02-19T06:37:08;100378.97;;;10.09;89.27
17615;BME280;8926;49.720;6.576;2023-02-19T06:39:33;100380.66;;;10.10;89.74
17615;BME280;8926;49.720;6.576;2023-02-19T06:41:59;100381.50;;;10.11;88.64
17615;BME280;8926;49.720;6.576;2023-02-19T06:44:24;100384.13;;;10.11;89.15
17615;BME280;8926;49.720;6.576;2023-02-19T06:46:50;100394.50;;;10.12;88.76
17615;BME280;8926;49.720;6.576;2023-02-19T06:49:15;100399.59;;;10.14;89.07
17615;BME280;8926;49.720;6.576;2023-02-19T06:51:41;100390.94;;;10.13;88.79
17615;BME280;8926;49.720;6.576;2023-02-19T06:54:07;100387.28;;;10.17;89.10
17615;BME280;8926;49.720;6.576;2023-02-19T06:56:34;100403.06;;;10.14;88.66
17615;BME280;8926;49.720;6.576;2023-02-19T06:59:01;100402.94;;;10.17;88.45
17615;BME280;8926;49.720;6.576;2023-02-19T07:01:31;100404.75;;;10.15;87.86
17615;BME280;8926;49.720;6.576;2023-02-19T07:03:57;100415.50;;;10.09;87.43
17615;BME280;8926;49.720;6.576;2023-02-19T07:06:24;100408.59;;;10.08;87.94
17615;BME280;8926;49.720;6.576;2023-02-19T07:08:51;100417.13;;;10.12;87.87
17615;BME280;8926;49.720;6.576;2023-02-19T07:11:16;100416.13;;;10.14;87.63
17615;BME280;8926;49.720;6.576;2023-02-19T07:13:43;100418.59;;;10.17;87.59
17615;BME280;8926;49.720;6.576;2023-02-19T07:16:09;100435.41;;;10.12;87.54
17615;BME280;8926;49.720;6.576;2023-02-19T07:18:35;100434.50;;;10.13;87.14
17615;BME280;8926;49.720;6.576;2023-02-19T07:21:11;100437.94;;;10.13;86.65
17615;BME280;8926;49.720;6.576;2023-02-19T07:23:37;100435.31;;;10.13;86.98
17615;BME280;8926;49.720;6.576;2023-02-19T07:26:03;100437.94;;;10.13;86.96
17615;BME280;8926;49.720;6.576;2023-02-19T07:28:29;100448.38;;;10.13;86.78
17615;BME280;8926;49.720;6.576;2023-02-19T07:30:59;100452.06;;;10.09;87.14
17615;BME280;8926;49.720;6.576;2023-02-19T07:33:25;100451.91;;;10.12;86.63
17615;BME280;8926;49.720;6.576;2023-02-19T07:35:50;100452.00;;;10.11;87.10
17615;BME280;8926;49.720;6.576;2023-02-19T07:38:19;100455.28;;;10.14;87.57
17615;BME280;8926;49.720;6.576;2023-02-19T07:40:52;100456.13;;;10.15;87.64
17615;BME280;8926;49.720;6.576;2023-02-19T07:43:19;100465.59;;;10.17;87.73
17615;BME280;8926;49.720;6.576;2023-02-19T07:45:44;100470.72;;;10.20;87.98
17615;BME280;8926;49.720;6.576;2023-02-19T07:48:09;100465.50;;;10.20;88.50
17615;BME280;8926;49.720;6.576;2023-02-19T07:50:35;100462.06;;;10.18;89.01
17615;BME280;8926;49.720;6.576;2023-02-19T07:53:00;100465.59;;;10.17;89.40
17615;BME280;8926;49.720;6.576;2023-02-19T07:55:25;100470.72;;;10.20;88.82
17615;BME280;8926;49.720;6.576;2023-02-19T07:57:51;100465.38;;;10.24;88.93
17615;BME280;8926;49.720;6.576;2023-02-19T08:00:16;100467.91;;;10.25;87.95
17615;BME280;8926;49.720;6.576;2023-02-19T08:02:43;100473.00;;;10.28;88.14
17615;BME280;8926;49.720;6.576;2023-02-19T08:05:39;100471.06;;;10.33;88.14
17615;BME280;8926;49.720;6.576;2023-02-19T08:08:07;100473.59;;;10.35;88.27
17615;BME280;8926;49.720;6.576;2023-02-19T08:10:33;100484.75;;;10.38;87.73
17615;BME280;8926;49.720;6.576;2023-02-19T08:13:17;100494.19;;;10.41;88.04
17615;BME280;8926;49.720;6.576;2023-02-19T08:15:43;100481.91;;;10.43;88.33
17615;BME280;8926;49.720;6.576;2023-02-19T08:18:10;100483.50;;;10.47;87.81
17615;BME280;8926;49.720;6.576;2023-02-19T08:20:35;100487.00;;;10.46;87.44
17615;BME280;8926;49.720;6.576;2023-02-19T08:23:01;100488.56;;;10.50;87.57
17615;BME280;8926;49.720;6.576;2023-02-19T08:25:27;100502.56;;;10.49;86.67
17615;BME280;8926;49.720;6.576;2023-02-19T08:27:52;100500.84;;;10.48;86.71
17615;BME280;8926;49.720;6.576;2023-02-19T08:30:17;100502.50;;;10.50;87.12
17615;BME280;8926;49.720;6.576;2023-02-19T08:32:43;100501.56;;;10.51;87.14
17615;BME280;8926;49.720;6.576;2023-02-19T08:35:08;100503.13;;;10.56;86.47
17615;BME280;8926;49.720;6.576;2023-02-19T08:37:33;100510.91;;;10.57;86.35
17615;BME280;8926;49.720;6.576;2023-02-19T08:39:58;100509.94;;;10.60;86.08
17615;BME280;8926;49.720;6.576;2023-02-19T08:42:24;100513.25;;;10.63;86.82
17615;BME280;8926;49.720;6.576;2023-02-19T08:44:49;100512.09;;;10.69;86.12
17615;BME280;8926;49.720;6.576;2023-02-19T08:47:14;100512.19;;;10.67;85.48
17615;BME280;8926;49.720;6.576;2023-02-19T08:49:40;100521.94;;;10.64;84.88
17615;BME280;8926;49.720;6.576;2023-02-19T08:52:05;100527.25;;;10.62;84.72
17615;BME280;8926;49.720;6.576;2023-02-19T08:54:30;100535.06;;;10.62;85.22
17615;BME280;8926;49.720;6.576;2023-02-19T08:56:55;100532.41;;;10.64;85.33
17615;BME280;8926;49.720;6.576;2023-02-19T08:59:22;100542.00;;;10.63;84.98
17615;BME280;8926;49.720;6.576;2023-02-19T09:01:47;100545.66;;;10.59;85.39
17615;BME280;8926;49.720;6.576;2023-02-19T09:04:13;100552.44;;;10.63;85.21
17615;BME280;8926;49.720;6.576;2023-02-19T09:06:38;100559.63;;;10.58;84.85
17615;BME280;8926;49.720;6.576;2023-02-19T09:09:03;100571.19;;;10.52;85.40
17615;BME280;8926;49.720;6.576;2023-02-19T09:11:29;100571.13;;;10.54;85.66
17615;BME280;8926;49.720;6.576;2023-02-19T09:13:55;100575.31;;;10.58;85.42
17615;BME280;8926;49.720;6.576;2023-02-19T09:16:21;100575.06;;;10.64;85.47
17615;BME280;8926;49.720;6.576;2023-02-19T09:18:46;100576.75;;;10.65;85.03
17615;BME280;8926;49.720;6.576;2023-02-19T09:21:12;100580.28;;;10.64;85.01
17615;BME280;8926;49.720;6.576;2023-02-19T09:23:37;100576.75;;;10.65;85.28
17615;BME280;8926;49.720;6.576;2023-02-19T09:26:04;100583.81;;;10.63;85.18
17615;BME280;8926;49.720;6.576;2023-02-19T09:28:32;100584.44;;;10.68;85.44
17615;BME280;8926;49.720;6.576;2023-02-19T09:31:05;100579.84;;;10.73;85.36
17615;BME280;8926;49.720;6.576;2023-02-19T09:33:30;100579.31;;;10.85;84.69
17615;BME280;8926;49.720;6.576;2023-02-19T09:35:58;100577.50;;;10.87;84.12
17615;BME280;8926;49.720;6.576;2023-02-19T09:38:24;100574.59;;;10.94;83.92
17615;BME280;8926;49.720;6.576;2023-02-19T09:40:49;100585.81;;;10.96;83.68
17615;BME280;8926;49.720;6.576;2023-02-19T09:43:17;100585.56;;;11.02;83.14
17615;BME280;8926;49.720;6.576;2023-02-19T09:45:44;100580.97;;;11.07;83.23
17615;BME280;8926;49.720;6.576;2023-02-19T09:48:11;100595.75;;;11.08;82.26
17615;BME280;8926;49.720;6.576;2023-02-19T09:50:40;100591.50;;;11.05;81.73
17615;BME280;8926;49.720;6.576;2023-02-19T09:53:23;100594.97;;;11.06;81.99
17615;BME280;8926;49.720;6.576;2023-02-19T09:55:51;100597.56;;;11.06;81.71
17615;BME280;8926;49.720;6.576;2023-02-19T09:58:27;100587.69;;;11.12;81.11
17615;BME280;8926;49.720;6.576;2023-02-19T10:00:56;100590.50;;;11.08;81.33
17615;BME280;8926;49.720;6.576;2023-02-19T10:03:27;100605.22;;;11.10;81.75
17615;BME280;8926;49.720;6.576;2023-02-19T10:06:00;100600.84;;;11.11;80.78
17615;BME280;8926;49.720;6.576;2023-02-19T10:08:26;100597.31;;;11.12;80.88
17615;BME280;8926;49.720;6.576;2023-02-19T10:10:52;100596.41;;;11.13;80.77
17615;BME280;8926;49.720;6.576;2023-02-19T10:13:23;100593.63;;;11.16;80.71
17615;BME280;8926;49.720;6.576;2023-02-19T10:15:53;100597.94;;;11.17;81.10
17615;BME280;8926;49.720;6.576;2023-02-19T10:18:29;100604.66;;;11.22;81.16
17615;BME280;8926;49.720;6.576;2023-02-19T10:20:57;100601.03;;;11.25;80.82
17615;BME280;8926;49.720;6.576;2023-02-19T10:23:23;100600.13;;;11.26;79.87
17615;BME280;8926;49.720;6.576;2023-02-19T10:25:54;100601.97;;;11.24;79.98
17615;BME280;8926;49.720;6.576;2023-02-19T10:28:24;100589.53;;;11.29;79.60
17615;BME280;8926;49.720;6.576;2023-02-19T10:30:57;100588.13;;;11.41;79.58
17615;BME280;8926;49.720;6.576;2023-02-19T10:33:23;100581.44;;;11.52;79.32
17615;BME280;8926;49.720;6.576;2023-02-19T10:35:54;100577.69;;;11.77;77.82
17615;BME280;8926;49.720;6.576;2023-02-19T10:38:24;100592.00;;;12.06;77.40
17615;BME280;8926;49.720;6.576;2023-02-19T10:40:58;100585.75;;;12.08;76.63
17615;BME280;8926;49.720;6.576;2023-02-19T10:43:27;100588.84;;;12.16;76.92
17615;BME280;8926;49.720;6.576;2023-02-19T10:46:04;100585.47;;;12.14;75.87
17615;BME280;8926;49.720;6.576;2023-02-19T10:48:34;100588.84;;;12.16;76.00
17615;BME280;8926;49.720;6.576;2023-02-19T10:51:07;100594.25;;;12.13;75.41
17615;BME280;8926;49.720;6.576;2023-02-19T10:53:47;100597.00;;;12.10;74.76
17615;BME280;8926;49.720;6.576;2023-02-19T10:56:15;100597.47;;;12.18;75.49
17615;BME280;8926;49.720;6.576;2023-02-19T10:58:46;100602.25;;;12.28;75.72
17615;BME280;8926;49.720;6.576;2023-02-19T11:03:46;100609.88;;;12.32;74.55
17615;BME280;8926;49.720;6.576;2023-02-19T11:06:13;100615.97;;;12.33;74.20
17615;BME280;8926;49.720;6.576;2023-02-19T11:11:07;100616.72;;;12.52;74.66
17615;BME280;8926;49.720;6.576;2023-02-19T11:13:33;100615.72;;;12.54;72.50
17615;BME280;8926;49.720;6.576;2023-02-19T11:16:02;100607.78;;;12.56;73.92
17615;BME280;8926;49.720;6.576;2023-02-19T11:18:32;100611.50;;;12.52;72.14
17615;BME280;8926;49.720;6.576;2023-02-19T11:21:02;100618.56;;;12.50;71.93
17615;BME280;8926;49.720;6.576;2023-02-19T11:23:44;100621.66;;;12.58;71.33
17615;BME280;8926;49.720;6.576;2023-02-19T11:26:26;100622.75;;;12.54;71.80
17615;BME280;8926;49.720;6.576;2023-02-19T11:29:09;100639.72;;;12.47;71.05
17615;BME280;8926;49.720;6.576;2023-02-19T11:31:36;100645.28;;;12.41;71.57
17615;BME280;8926;49.720;6.576;2023-02-19T11:36:41;100633.25;;;12.37;71.71
17615;BME280;8926;49.720;6.576;2023-02-19T11:45:06;100616.22;;;12.45;72.04
17615;BME280;8926;49.720;6.576;2023-02-19T11:58:49;100624.44;;;12.55;71.38
17615;BME280;8926;49.720;6.576;2023-02-19T12:06:32;100618.28;;;12.56;71.68
17615;BME280;8926;49.720;6.576;2023-02-19T12:09:35;100618.28;;;12.56;70.70
17615;BME280;8926;49.720;6.576;2023-02-19T12:12:12;100617.72;;;12.49;70.45
17615;BME280;8926;49.720;6.576;2023-02-19T12:20:09;100635.09;;;12.35;70.43
17615;BME280;8926;49.720;6.576;2023-02-19T12:25:41;100646.16;;;12.22;71.46
17615;BME280;8926;49.720;6.576;2023-02-19T12:28:25;100649.69;;;12.21;71.61
17615;BME280;8926;49.720;6.576;2023-02-19T12:34:03;100645.72;;;12.32;71.08
17615;BME280;8926;49.720;6.576;2023-02-19T12:36:57;100645.56;;;12.35;71.21
17615;BME280;8926;49.720;6.576;2023-02-19T12:39:35;100649.81;;;12.37;71.33
17615;BME280;8926;49.720;6.576;2023-02-19T12:42:39;100648.97;;;12.37;71.03
17615;BME280;8926;49.720;6.576;2023-02-19T12:45:17;100641.09;;;12.37;70.98
17615;BME280;8926;49.720;6.576;2023-02-19T12:47:56;100650.50;;;12.41;70.86
17615;BME280;8926;49.720;6.576;2023-02-19T12:50:25;100641.47;;;12.29;70.61
17615;BME280;8926;49.720;6.576;2023-02-19T12:52:59;100644.00;;;12.31;71.42
17615;BME280;8926;49.720;6.576;2023-02-19T12:55:33;100641.53;;;12.28;70.98
17615;BME280;8926;49.720;6.576;2023-02-19T12:58:02;100637.69;;;12.17;70.47
17615;BME280;8926;49.720;6.576;2023-02-19T13:00:34;100634.44;;;12.12;70.75
17615;BME280;8926;49.720;6.576;2023-02-19T13:03:16;100629.50;;;12.06;70.94
17615;BME280;8926;49.720;6.576;2023-02-19T13:06:12;100634.03;;;12.03;70.65
17615;BME280;8926;49.720;6.576;2023-02-19T13:11:27;100617.63;;;11.99;71.02
17615;BME280;8926;49.720;6.576;2023-02-19T13:13:59;100613.94;;;12.03;71.00
17615;BME280;8926;49.720;6.576;2023-02-19T13:16:28;100625.03;;;12.08;71.36
17615;BME280;8926;49.720;6.576;2023-02-19T13:19:02;100627.03;;;12.03;70.21
17615;BME280;8926;49.720;6.576;2023-02-19T13:21:30;100617.94;;;11.93;70.73
17615;BME280;8926;49.720;6.576;2023-02-19T13:24:32;100616.53;;;11.86;70.75
17615;BME280;8926;49.720;6.576;2023-02-19T13:33:01;100615.06;;;11.98;70.86
17615;BME280;8926;49.720;6.576;2023-02-19T13:38:15;100614.63;;;11.89;71.55
17615;BME280;8926;49.720;6.576;2023-02-19T13:40:41;100615.47;;;11.90;71.54
17615;BME280;8926;49.720;6.576;2023-02-19T13:43:29;100615.91;;;11.98;71.23
17615;BME280;8926;49.720;6.576;2023-02-19T13:46:05;100609.69;;;12.01;70.90
17615;BME280;8926;49.720;6.576;2023-02-19T13:48:33;100613.63;;;12.09;71.50
17615;BME280;8926;49.720;6.576;2023-02-19T13:59:32;100610.81;;;12.14;70.92
17615;BME280;8926;49.720;6.576;2023-02-19T14:07:18;100624.13;;;12.09;70.51
17615;BME280;8926;49.720;6.576;2023-02-19T14:09:45;100641.53;;;12.10;70.25
17615;BME280;8926;49.720;6.576;2023-02-19T14:20:39;100628.00;;;12.37;70.36
17615;BME280;8926;49.720;6.576;2023-02-19T14:23:16;100618.00;;;12.45;70.05
17615;BME280;8926;49.720;6.576;2023-02-19T14:25:50;100614.09;;;12.52;70.60
17615;BME280;8926;49.720;6.576;2023-02-19T14:30:51;100628.91;;;12.53;69.45
17615;BME280;8926;49.720;6.576;2023-02-19T14:33:38;100634.63;;;12.44;69.34
17615;BME280;8926;49.720;6.576;2023-02-19T14:38:45;100644.88;;;12.31;70.11
17615;BME280;8926;49.720;6.576;2023-02-19T14:41:14;100646.00;;;12.26;70.48
17615;BME280;8926;49.720;6.576;2023-02-19T14:43:41;100649.69;;;12.21;70.36
17615;BME280;8926;49.720;6.576;2023-02-19T14:46:27;100651.56;;;12.19;70.38
17615;BME280;8926;49.720;6.576;2023-02-19T14:48:58;100644.78;;;12.15;70.56
17615;BME280;8926;49.720;6.576;2023-02-19T14:51:33;100646.69;;;12.12;70.68
17615;BME280;8926;49.720;6.576;2023-02-19T14:54:09;100641.53;;;12.10;70.85
17615;BME280;8926;49.720;6.576;2023-02-19T14:56:36;100659.22;;;12.05;71.24
17615;BME280;8926;49.720;6.576;2023-02-19T14:59:20;100672.47;;;12.02;70.99
17615;BME280;8926;49.720;6.576;2023-02-19T15:02:14;100682.16;;;12.00;71.21
17615;BME280;8926;49.720;6.576;2023-02-19T15:04:40;100672.00;;;11.94;71.19